Time;durP1;ratioP1;P1;durP2;ratioP2;P2;SDS_P1;SDS_P2;PMS_P1;PMS_P2;Temp;Humidity;BMP_temperature;BMP_pressure;BME280_temperature;BME280_humidity;BME280_pressure;Samples;Min_cycle;Max_cycle;Signal;HPM_P1;HPM_P2
2023/05/09 00:00:26;;;;;;;22.90;12.75;;;14.80;99.20;;;;;;6137090;23;20005;-96
2023/05/09 00:02:53;;;;;;;28.77;12.68;;;14.80;99.20;;;;;;6185699;23;20009;-96
2023/05/09 00:05:20;;;;;;;25.45;12.18;;;14.70;99.10;;;;;;6136839;23;20029;-96
2023/05/09 00:07:47;;;;;;;25.83;13.65;;;14.70;99.10;;;;;;6186112;23;20015;-96
2023/05/09 00:10:13;;;;;;;24.58;13.65;;;14.70;99.10;;;;;;6186172;23;20005;-96
2023/05/09 00:12:40;;;;;;;27.65;13.75;;;14.70;99.00;;;;;;6185522;23;20001;-96
2023/05/09 00:15:07;;;;;;;24.08;13.50;;;14.90;99.20;;;;;;6186306;23;20001;-96
2023/05/09 00:17:35;;;;;;;29.45;13.90;;;14.70;99.10;;;;;;6187084;23;20008;-96
2023/05/09 00:20:04;;;;;;;24.40;13.07;;;14.70;99.10;;;;;;6141057;23;20092;-96
2023/05/09 00:22:30;;;;;;;21.30;12.25;;;14.70;99.00;;;;;;6185916;23;20001;-96
2023/05/09 00:24:55;;;;;;;27.85;14.77;;;14.70;99.00;;;;;;6160964;23;20024;-96
2023/05/09 00:27:21;;;;;;;29.27;12.90;;;14.70;99.00;;;;;;6185884;23;20009;-96
2023/05/09 00:29:47;;;;;;;22.30;11.13;;;14.70;99.00;;;;;;6136314;23;20481;-96
2023/05/09 00:32:16;;;;;;;19.70;11.07;;;14.70;98.90;;;;;;6187322;23;20001;-96
2023/05/09 00:34:43;;;;;;;17.80;10.05;;;14.70;98.90;;;;;;6161068;23;20013;-96
2023/05/09 00:37:09;;;;;;;18.30;10.38;;;14.70;99.00;;;;;;6160976;23;20013;-95
2023/05/09 00:39:38;;;;;;;18.25;10.48;;;14.70;98.90;;;;;;6161048;23;20017;-96
2023/05/09 00:42:07;;;;;;;16.77;10.13;;;14.70;99.00;;;;;;6185814;23;20012;-96
2023/05/09 00:44:34;;;;;;;17.52;10.70;;;14.70;99.00;;;;;;6185815;23;20009;-96
2023/05/09 00:47:00;;;;;;;16.42;10.38;;;14.70;99.00;;;;;;6161677;23;20019;-96
2023/05/09 00:49:26;;;;;;;18.45;10.63;;;14.70;98.90;;;;;;6161559;23;20020;-96
2023/05/09 00:51:56;;;;;;;16.80;10.05;;;14.70;98.90;;;;;;6189519;23;20041;-96
2023/05/09 00:54:22;;;;;;;13.52;8.57;;;14.70;98.90;;;;;;6162132;23;20115;-96
2023/05/09 00:56:49;;;;;;;16.58;9.55;;;15.00;99.10;;;;;;6186960;23;20004;-96
2023/05/09 00:59:16;;;;;;;19.20;9.68;;;14.70;98.90;;;;;;6185987;23;20069;-96
2023/05/09 01:01:43;;;;;;;21.45;11.15;;;14.70;98.90;;;;;;6186986;23;20005;-96
2023/05/09 01:04:13;;;;;;;17.08;10.20;;;14.70;98.90;;;;;;6161038;23;20084;-96
2023/05/09 01:07:07;;;;;;;17.63;10.20;;;14.60;98.90;;;;;;6185375;23;20101;-96
2023/05/09 01:09:49;;;;;;;16.95;9.95;;;14.70;98.90;;;;;;6184595;23;20005;-96
2023/05/09 01:12:33;;;;;;;22.95;11.23;;;14.60;98.80;;;;;;6186083;23;20012;-96
2023/05/09 01:15:33;;;;;;;18.48;10.07;;;14.60;98.80;;;;;;6188332;23;20001;-96
2023/05/09 01:18:03;;;;;;;16.67;9.75;;;14.60;98.80;;;;;;6136844;23;20016;-96
2023/05/09 01:20:39;;;;;;;17.95;10.65;;;14.60;98.80;;;;;;6160377;23;20560;-96
2023/05/09 01:23:35;;;;;;;14.45;9.10;;;14.60;98.80;;;;;;6161770;23;20143;-96
2023/05/09 01:26:28;;;;;;;17.25;9.93;;;14.60;98.80;;;;;;6186950;23;20020;-96
2023/05/09 01:29:11;;;;;;;15.48;9.35;;;14.60;98.80;;;;;;6161571;23;20099;-96
2023/05/09 01:31:52;;;;;;;17.58;10.38;;;14.60;98.80;;;;;;6188965;23;20001;-96
2023/05/09 01:34:22;;;;;;;18.08;10.30;;;14.60;98.80;;;;;;6187871;23;20072;-96
2023/05/09 01:36:49;;;;;;;;;;;14.60;98.70;;;;;;6163821;23;20009;-96
2023/05/09 01:39:23;;;;;;;17.25;9.77;;;14.70;98.80;;;;;;6189578;23;19979;-96
2023/05/09 01:41:51;;;;;;;;;;;14.60;98.70;;;;;;6189287;23;20057;-96
2023/05/09 01:44:24;;;;;;;19.58;10.20;;;14.60;98.70;;;;;;6162485;23;19950;-96
2023/05/09 01:46:53;;;;;;;17.83;10.43;;;14.60;98.70;;;;;;6186618;23;20422;-96
2023/05/09 01:49:21;;;;;;;23.58;11.75;;;14.60;98.70;;;;;;6187769;23;20430;-96
2023/05/09 01:51:51;;;;;;;21.23;12.27;;;14.60;98.70;;;;;;6187491;23;20044;-96
2023/05/09 01:54:19;;;;;;;29.48;14.25;;;14.60;98.70;;;;;;6185920;23;20088;-96
2023/05/09 01:56:46;;;;;;;24.40;13.35;;;14.60;98.70;;;;;;6187326;23;20012;-96
2023/05/09 01:59:17;;;;;;;23.17;13.63;;;14.60;98.70;;;;;;6139800;23;20009;-96
2023/05/09 02:02:06;;;;;;;20.02;12.10;;;14.50;98.70;;;;;;6194155;23;20005;-96
2023/05/09 02:04:34;;;;;;;26.02;13.80;;;14.60;98.80;;;;;;6109479;23;20006;-96
2023/05/09 02:07:01;;;;;;;24.95;12.63;;;14.50;98.80;;;;;;6127391;23;20082;-96
2023/05/09 02:09:27;;;;;;;23.73;12.57;;;14.60;98.80;;;;;;6127104;23;20044;-96
2023/05/09 02:11:54;;;;;;;22.55;12.30;;;14.60;98.80;;;;;;6104996;23;20018;-96
2023/05/09 02:14:26;;;;;;;25.83;12.43;;;14.50;98.70;;;;;;6131838;23;20018;-96
2023/05/09 02:17:04;;;;;;;23.05;12.10;;;14.60;98.70;;;;;;6120425;23;19997;-96
2023/05/09 02:19:40;;;;;;;27.80;12.93;;;14.50;98.70;;;;;;6142390;23;20062;-96
2023/05/09 02:22:11;;;;;;;25.08;13.75;;;14.50;98.80;;;;;;6138853;23;20010;-96
2023/05/09 02:24:40;;;;;;;22.15;12.35;;;14.50;98.80;;;;;;6092578;23;20436;-96
2023/05/09 02:27:10;;;;;;;21.05;12.70;;;14.60;98.80;;;;;;6139777;23;20017;-96
2023/05/09 02:29:48;;;;;;;22.75;12.43;;;14.50;98.70;;;;;;6140018;23;20018;-96
2023/05/09 02:32:20;;;;;;;22.02;13.32;;;14.50;98.80;;;;;;6115241;23;20014;-96
2023/05/09 02:34:48;;;;;;;23.75;11.68;;;14.50;98.80;;;;;;6124896;23;20015;-96
2023/05/09 02:37:15;;;;;;;26.08;12.80;;;14.50;98.80;;;;;;6195670;23;20059;-96
2023/05/09 02:39:41;;;;;;;18.25;10.60;;;14.50;98.80;;;;;;6200373;23;20016;-96
2023/05/09 02:42:10;;;;;;;21.85;12.70;;;15.00;98.90;;;;;;6124344;23;20001;-96
2023/05/09 02:44:37;;;;;;;20.67;12.73;;;14.50;98.80;;;;;;6197154;23;20001;-96
2023/05/09 02:47:06;;;;;;;22.42;12.93;;;14.50;98.80;;;;;;6195288;23;20013;-96
2023/05/09 02:49:33;;;;;;;22.83;12.40;;;14.50;98.80;;;;;;6193350;23;20011;-96
2023/05/09 02:52:00;;;;;;;22.58;12.20;;;14.50;98.80;;;;;;6168702;23;20013;-96
2023/05/09 02:54:32;;;;;;;18.20;11.65;;;14.50;98.80;;;;;;6198066;23;20005;-96
2023/05/09 02:57:00;;;;;;;19.90;11.93;;;14.50;98.80;;;;;;6198722;23;20008;-96
2023/05/09 02:59:26;;;;;;;29.80;13.15;;;14.50;98.80;;;;;;6147829;23;20055;-96
2023/05/09 03:01:53;;;;;;;19.65;11.90;;;14.50;98.80;;;;;;6171579;23;20076;-96
2023/05/09 03:04:19;;;;;;;27.85;11.68;;;14.50;98.80;;;;;;6172713;23;20025;-96
2023/05/09 03:06:45;;;;;;;22.65;11.02;;;14.50;98.80;;;;;;6198439;23;20017;-96
2023/05/09 03:11:47;;;;;;;24.27;11.68;;;14.50;98.80;;;;;;6187705;23;20025;-96
2023/05/09 03:14:15;;;;;;;18.67;11.18;;;14.50;98.80;;;;;;6167476;23;20039;-96
2023/05/09 03:16:43;;;;;;;21.98;12.05;;;14.50;98.80;;;;;;6124030;23;20009;-96
2023/05/09 03:19:09;;;;;;;21.70;11.52;;;14.50;98.80;;;;;;6173088;23;20016;-96
2023/05/09 03:21:39;;;;;;;22.80;12.07;;;14.50;98.80;;;;;;6171629;23;20005;-96
2023/05/09 03:24:08;;;;;;;20.85;11.32;;;14.50;98.80;;;;;;6167682;23;20009;-96
2023/05/09 03:26:34;;;;;;;18.67;10.38;;;14.50;98.80;;;;;;6167142;23;20009;-96
2023/05/09 03:29:03;;;;;;;16.85;9.68;;;14.50;98.80;;;;;;6170213;23;20048;-96
2023/05/09 03:31:41;;;;;;;19.27;10.90;;;14.50;98.80;;;;;;6172748;23;20012;-96
2023/05/09 03:34:13;;;;;;;19.25;11.50;;;14.40;98.80;;;;;;6146087;23;20076;-96
2023/05/09 03:36:43;;;;;;;24.33;11.63;;;14.50;98.80;;;;;;6196340;23;19998;-96
2023/05/09 03:39:10;;;;;;;24.23;12.00;;;14.50;98.80;;;;;;6171889;23;20001;-96
2023/05/09 03:41:36;;;;;;;18.42;11.43;;;14.40;98.70;;;;;;6171478;23;20012;-96
2023/05/09 03:44:23;;;;;;;20.20;10.80;;;14.50;98.80;;;;;;6176541;23;20031;-95
2023/05/09 03:46:49;;;;;;;20.00;10.85;;;14.50;98.80;;;;;;6166566;23;20024;-96
2023/05/09 03:49:18;;;;;;;21.55;11.57;;;14.50;98.80;;;;;;6164596;23;20087;-96
2023/05/09 03:51:49;;;;;;;22.17;12.60;;;14.50;98.80;;;;;;6170301;23;20219;-96
2023/05/09 03:54:18;;;;;;;;;;;14.50;98.80;;;;;;6124618;23;20011;-96
2023/05/09 03:56:44;;;;;;;23.88;12.85;;;14.40;98.80;;;;;;6171134;23;19901;-96
2023/05/09 03:59:10;;;;;;;22.30;12.23;;;14.50;98.80;;;;;;6170065;23;20013;-96
2023/05/09 04:01:38;;;;;;;19.33;10.88;;;14.50;98.80;;;;;;6167882;23;20028;-96
2023/05/09 04:04:04;;;;;;;21.20;12.45;;;14.50;98.80;;;;;;6142545;23;20019;-96
2023/05/09 04:06:32;;;;;;;24.80;12.50;;;14.20;98.70;;;;;;6166626;23;20037;-96
2023/05/09 04:08:57;;;;;;;22.58;12.02;;;14.50;98.80;;;;;;6164880;23;20005;-96
2023/05/09 04:11:24;;;;;;;20.55;12.13;;;14.50;98.80;;;;;;6160787;23;20324;-96
2023/05/09 04:13:53;;;;;;;24.40;12.10;;;14.40;98.80;;;;;;6158838;23;20037;-96
2023/05/09 04:16:20;;;;;;;27.10;13.48;;;14.40;98.70;;;;;;6159132;23;20439;-96
2023/05/09 04:18:46;;;;;;;24.20;13.10;;;14.50;98.80;;;;;;6158761;23;20010;-96
2023/05/09 04:21:12;;;;;;;28.60;13.15;;;14.40;98.70;;;;;;6116143;23;20092;-95
2023/05/09 04:23:42;;;;;;;24.75;13.65;;;14.50;98.70;;;;;;6170322;23;20025;-96
2023/05/09 04:26:11;;;;;;;;;;;14.80;98.80;;;;;;6120144;23;20060;-96
2023/05/09 04:28:38;;;;;;;24.50;13.25;;;14.50;98.70;;;;;;6160327;23;19955;-96
2023/05/09 04:31:05;;;;;;;25.42;12.38;;;14.90;98.90;;;;;;6160234;23;20017;-96
2023/05/09 04:33:31;;;;;;;27.90;14.48;;;14.50;98.80;;;;;;6160596;23;20377;-96
2023/05/09 04:35:57;;;;;;;27.63;14.10;;;14.50;98.70;;;;;;6138453;23;20076;-96
2023/05/09 04:38:23;;;;;;;24.70;14.00;;;14.50;98.80;;;;;;6166453;23;20013;-96
2023/05/09 04:40:57;;;;;;;28.10;15.52;;;14.50;98.70;;;;;;6173382;23;19990;-96
2023/05/09 04:43:30;;;;;;;27.50;14.52;;;14.50;98.80;;;;;;6172436;23;20010;-96
2023/05/09 04:45:56;;;;;;;29.60;15.23;;;14.40;98.70;;;;;;6145703;23;20028;-96
2023/05/09 04:48:25;;;;;;;29.88;15.98;;;14.50;98.70;;;;;;6167291;23;20010;-96
2023/05/09 04:50:53;;;;;;;31.85;15.98;;;14.60;98.70;;;;;;6140778;23;20040;-96
2023/05/09 04:53:23;;;;;;;31.63;15.52;;;14.40;98.60;;;;;;6140988;23;20009;-96
2023/05/09 04:55:50;;;;;;;28.38;14.85;;;14.50;98.70;;;;;;6161750;23;20009;-96
2023/05/09 04:58:16;;;;;;;32.58;15.63;;;14.50;98.70;;;;;;6163613;23;20027;-96
2023/05/09 05:00:42;;;;;;;29.45;14.50;;;14.50;98.60;;;;;;6163479;23;20008;-96
2023/05/09 05:03:11;;;;;;;29.73;16.05;;;14.40;98.60;;;;;;6165327;23;20065;-96
2023/05/09 05:05:40;;;;;;;37.65;17.85;;;14.50;98.70;;;;;;6144818;23;20063;-96
2023/05/09 05:08:06;;;;;;;29.00;16.40;;;14.50;98.70;;;;;;6167985;23;20009;-96
2023/05/09 05:15:47;;;;;;;32.05;16.38;;;14.50;98.70;;;;;;6192751;23;20016;-96
2023/05/09 05:18:19;;;;;;;31.98;15.00;;;14.50;98.60;;;;;;6138868;23;20005;-96
2023/05/09 05:20:49;;;;;;;33.13;17.02;;;14.50;98.70;;;;;;6144129;23;20060;-96
2023/05/09 05:23:17;;;;;;;29.13;16.37;;;14.50;98.90;;;;;;6164639;23;20013;-96
2023/05/09 05:25:43;;;;;;;28.25;15.10;;;14.50;98.60;;;;;;6140404;23;20717;-96
2023/05/09 05:28:09;;;;;;;29.58;15.32;;;14.50;98.60;;;;;;6139477;23;20015;-96
2023/05/09 05:30:34;;;;;;;30.80;15.90;;;14.50;98.60;;;;;;6115915;23;20080;-96
2023/05/09 05:33:01;;;;;;;34.22;15.48;;;14.50;98.60;;;;;;6194055;23;20001;-96
2023/05/09 05:35:27;;;;;;;32.97;16.70;;;14.50;98.60;;;;;;6114551;23;20009;-96
2023/05/09 05:37:54;;;;;;;33.25;17.10;;;14.50;98.60;;;;;;6163288;23;20012;-96
2023/05/09 05:40:22;;;;;;;29.65;16.73;;;14.60;98.60;;;;;;6140672;23;20013;-96
2023/05/09 05:42:48;;;;;;;28.50;15.38;;;14.50;98.60;;;;;;6164456;23;20005;-96
2023/05/09 05:45:15;;;;;;;32.22;16.50;;;14.50;98.60;;;;;;6139516;23;20076;-96
2023/05/09 05:47:43;;;;;;;30.83;16.00;;;14.60;98.60;;;;;;6141135;23;20005;-96
2023/05/09 05:50:12;;;;;;;29.02;16.75;;;14.50;98.50;;;;;;6141646;23;20008;-96
2023/05/09 05:52:38;;;;;;;32.95;18.58;;;14.60;98.50;;;;;;6166496;23;20537;-96
2023/05/09 05:55:08;;;;;;;39.13;17.63;;;14.60;98.50;;;;;;6136862;23;20020;-96
2023/05/09 05:57:48;;;;;;;30.03;17.23;;;14.70;98.40;;;;;;6170046;23;19989;-96
2023/05/09 06:00:55;;;;;;;34.88;18.02;;;14.70;98.40;;;;;;6185829;23;20244;-96
2023/05/09 06:06:06;;;;;;;33.70;18.50;;;14.70;98.20;;;;;;6184673;23;20032;-96
2023/05/09 06:09:08;;;;;;;33.00;17.27;;;14.80;98.20;;;;;;6154598;23;20020;-96
2023/05/09 06:12:05;;;;;;;33.33;17.83;;;14.80;98.20;;;;;;6209419;23;20056;-96
2023/05/09 06:14:49;;;;;;;31.85;15.50;;;14.80;98.10;;;;;;6085594;23;20001;-96
2023/05/09 06:17:40;;;;;;;28.63;16.42;;;14.80;98.10;;;;;;6124588;23;20012;-96
2023/05/09 06:20:17;;;;;;;27.17;15.50;;;14.90;98.10;;;;;;6176313;23;20001;-96
2023/05/09 06:22:46;;;;;;;30.83;17.10;;;14.90;98.00;;;;;;6172075;23;20005;-96
2023/05/09 06:25:42;;;;;;;32.85;15.75;;;14.90;98.00;;;;;;6128773;23;20010;-96
2023/05/09 06:28:14;;;;;;;35.33;16.92;;;15.00;98.00;;;;;;6203831;23;20017;-96
2023/05/09 06:31:12;;;;;;;32.05;16.88;;;15.00;97.90;;;;;;6173494;23;20009;-96
2023/05/09 06:34:23;;;;;;;35.15;15.73;;;15.00;97.90;;;;;;6147809;23;20009;-96
2023/05/09 06:37:18;;;;;;;34.60;17.38;;;15.10;97.90;;;;;;6177093;23;20060;-96
2023/05/09 06:40:01;;;;;;;35.30;17.02;;;15.20;97.80;;;;;;6182836;23;20016;-96
2023/05/09 06:47:59;;;;;;;;;;;;;;;;;;;;;
2023/05/09 06:51:22;;;;;;;32.65;18.13;;;15.30;97.50;;;;;;6194374;23;20020;-96
2023/05/09 06:53:58;;;;;;;32.72;17.75;;;15.30;97.40;;;;;;6169116;23;20005;-96
2023/05/09 06:56:30;;;;;;;34.75;17.65;;;15.40;97.40;;;;;;6138485;23;20017;-96
2023/05/09 06:59:02;;;;;;;31.08;17.95;;;15.40;97.30;;;;;;6196707;23;20001;-96
2023/05/09 07:01:31;;;;;;;35.63;19.35;;;15.40;97.30;;;;;;6201272;23;20008;-96
2023/05/09 07:04:10;;;;;;;36.42;19.55;;;15.50;97.20;;;;;;6135410;23;20025;-96
2023/05/09 07:07:46;;;;;;;37.70;17.00;;;15.50;97.20;;;;;;6173695;23;20020;-96
2023/05/09 07:10:22;;;;;;;35.97;18.95;;;15.60;97.10;;;;;;6082558;23;20079;-96
2023/05/09 07:12:50;;;;;;;41.03;20.90;;;15.60;97.00;;;;;;6046592;23;20460;-96
2023/05/09 07:15:17;;;;;;;40.15;18.85;;;15.60;96.90;;;;;;6050827;23;20010;-96
2023/05/09 07:17:43;;;;;;;41.08;19.17;;;15.70;96.80;;;;;;6024250;23;20011;-96
2023/05/09 07:20:27;;;;;;;36.30;18.23;;;15.80;96.80;;;;;;6056870;23;20011;-96
2023/05/09 07:23:01;;;;;;;27.40;13.27;;;15.80;96.70;;;;;;6062102;23;20031;-96
2023/05/09 07:25:53;;;;;;;27.88;15.77;;;15.80;96.60;;;;;;6079438;23;20103;-96
2023/05/09 07:31:47;;;;;;;32.97;17.75;;;15.90;96.50;;;;;;6075671;23;20014;-96
2023/05/09 07:34:24;;;;;;;33.10;16.55;;;15.90;96.40;;;;;;6076946;23;20015;-96
2023/05/09 07:37:04;;;;;;;35.15;17.40;;;16.00;96.30;;;;;;6051327;23;20380;-96
2023/05/09 07:39:51;;;;;;;;;;;;;;;;;;;;;
2023/05/09 07:42:43;;;;;;;30.42;17.73;;;16.10;96.10;;;;;;6061169;23;20011;-96
2023/05/09 07:45:28;;;;;;;33.22;18.05;;;16.10;95.90;;;;;;6078647;23;19989;-96
2023/05/09 07:51:34;;;;;;;36.08;18.63;;;16.20;95.80;;;;;;6169681;23;20049;-96
2023/05/09 08:03:12;;;;;;;;;;;;;;;;;;;;;
2023/05/09 08:49:55;;;;;;;29.73;16.83;;;16.90;94.60;;;;;;6183883;23;20639;-96
2023/05/09 08:52:26;;;;;;;29.70;16.55;;;16.90;94.60;;;;;;6175477;23;20005;-96
2023/05/09 08:54:52;;;;;;;33.07;17.67;;;16.90;94.30;;;;;;6111136;23;20036;-96
2023/05/09 08:57:25;;;;;;;34.78;16.23;;;16.90;94.70;;;;;;6141684;23;20032;-96
2023/05/09 09:00:19;;;;;;;29.02;16.83;;;16.90;94.30;;;;;;6146867;23;20005;-96
2023/05/09 09:02:53;;;;;;;27.73;14.55;;;16.90;94.30;;;;;;6176414;23;20028;-96
2023/05/09 09:05:23;;;;;;;25.15;13.07;;;17.00;94.20;;;;;;6202750;23;20043;-96
2023/05/09 09:10:45;;;;;;;35.17;17.90;;;17.00;94.10;;;;;;6160101;23;20030;-96
2023/05/09 09:13:13;;;;;;;32.60;18.15;;;17.00;94.10;;;;;;6129709;23;20428;-95
2023/05/09 09:15:42;;;;;;;33.13;15.90;;;17.10;94.30;;;;;;6099621;23;20036;-94
2023/05/09 09:18:11;;;;;;;25.95;11.68;;;17.10;94.10;;;;;;6125082;23;20076;-96
2023/05/09 09:20:46;;;;;;;33.25;18.25;;;17.20;94.20;;;;;;6097634;23;20017;-95
2023/05/09 09:23:17;;;;;;;40.63;21.52;;;17.20;94.10;;;;;;6098930;23;20002;-92
2023/05/09 09:25:47;;;;;;;41.60;17.88;;;17.20;94.30;;;;;;6099106;23;20018;-95
2023/05/09 09:28:14;;;;;;;30.33;18.52;;;17.20;94.00;;;;;;6097921;23;20006;-92
2023/05/09 09:30:59;;;;;;;35.38;18.88;;;17.20;94.00;;;;;;6098813;23;20073;-95
2023/05/09 09:33:27;;;;;;;33.35;17.90;;;17.20;94.10;;;;;;6098879;23;20401;-95
2023/05/09 09:35:54;;;;;;;30.55;16.75;;;17.20;94.10;;;;;;6099194;23;20006;-93
2023/05/09 09:38:21;;;;;;;28.17;16.52;;;17.20;94.10;;;;;;6098557;23;20423;-92
2023/05/09 09:40:57;;;;;;;28.80;14.45;;;17.30;94.30;;;;;;6098916;23;19998;-95
2023/05/09 09:43:30;;;;;;;26.23;13.98;;;17.30;94.10;;;;;;6098319;23;20013;-95
2023/05/09 09:45:59;;;;;;;27.67;15.20;;;17.20;94.30;;;;;;6100278;23;20317;-93
2023/05/09 09:48:29;;;;;;;25.23;14.98;;;17.30;94.40;;;;;;6100030;23;20002;-95
2023/05/09 09:51:17;;;;;;;28.63;15.40;;;17.30;94.60;;;;;;6096463;23;20014;-94
2023/05/09 09:54:05;;;;;;;27.60;14.75;;;17.30;94.50;;;;;;6098737;23;20490;-94
2023/05/09 09:56:45;;;;;;;25.13;14.57;;;17.50;94.50;;;;;;6100646;23;20010;-93
2023/05/09 09:59:13;;;;;;;24.75;15.05;;;17.30;94.30;;;;;;6100540;23;20006;-93
2023/05/09 10:02:00;;;;;;;23.77;13.65;;;17.40;94.40;;;;;;6100912;23;20013;-96
2023/05/09 10:04:33;;;;;;;22.27;13.43;;;17.30;94.50;;;;;;6100390;23;20034;-92
2023/05/09 10:07:04;;;;;;;29.30;15.52;;;17.40;94.70;;;;;;6100576;23;20034;-94
2023/05/09 10:09:31;;;;;;;33.17;18.38;;;17.30;94.40;;;;;;6100209;23;20002;-92
2023/05/09 10:12:02;;;;;;;34.50;18.40;;;17.30;94.70;;;;;;6152094;23;20094;-94
2023/05/09 10:14:30;;;;;;;37.13;19.85;;;17.30;94.50;;;;;;6128868;23;20016;-94
2023/05/09 10:16:56;;;;;;;31.00;17.80;;;17.30;94.70;;;;;;6128249;23;20025;-94
2023/05/09 10:19:25;;;;;;;35.22;15.85;;;17.30;94.70;;;;;;6128157;23;20009;-95
2023/05/09 10:22:03;;;;;;;26.88;16.40;;;17.20;94.90;;;;;;6128214;23;20331;-94
2023/05/09 10:24:56;;;;;;;21.90;11.35;;;17.30;94.90;;;;;;6130087;23;20002;-96
2023/05/09 10:27:26;;;;;;;19.83;11.27;;;17.30;95.30;;;;;;6159082;23;20096;-96
2023/05/09 10:30:00;;;;;;;20.88;12.00;;;17.40;95.50;;;;;;6155400;23;20052;-96
2023/05/09 10:32:52;;;;;;;21.55;11.25;;;17.30;95.40;;;;;;6129087;23;20005;-96
2023/05/09 10:35:25;;;;;;;22.83;12.20;;;17.30;95.40;;;;;;6129337;23;20013;-95
2023/05/09 10:37:54;;;;;;;18.65;11.60;;;17.30;95.40;;;;;;6129015;23;20444;-95
2023/05/09 10:40:20;;;;;;;16.70;10.05;;;17.30;95.30;;;;;;6131974;23;20016;-96
2023/05/09 10:42:47;;;;;;;19.88;12.00;;;17.20;95.60;;;;;;6129690;23;20009;-95
2023/05/09 10:45:13;;;;;;;20.88;11.85;;;17.30;95.60;;;;;;6129218;23;20009;-94
2023/05/09 10:47:41;;;;;;;19.33;10.02;;;17.20;95.50;;;;;;6130140;23;20218;-96
2023/05/09 10:50:08;;;;;;;28.17;13.02;;;17.20;95.80;;;;;;6127119;23;20013;-95
2023/05/09 10:52:54;;;;;;;23.20;12.93;;;17.20;95.70;;;;;;6125937;23;20047;-93
2023/05/09 10:55:34;;;;;;;24.77;12.73;;;17.20;95.70;;;;;;6152737;23;20474;-95
2023/05/09 10:58:06;;;;;;;;;;;17.20;96.00;;;;;;6128591;23;20053;-93
2023/05/09 11:00:32;;;;;;;20.48;11.82;;;17.10;95.70;;;;;;6129738;23;19901;-93
2023/05/09 11:03:08;;;;;;;19.90;12.80;;;17.10;95.80;;;;;;6128877;23;20438;-94
2023/05/09 11:05:40;;;;;;;21.88;13.07;;;17.10;95.80;;;;;;6129145;23;20022;-93
2023/05/09 11:08:26;;;;;;;17.67;10.88;;;17.10;95.70;;;;;;6129905;23;20009;-93
2023/05/09 11:10:59;;;;;;;18.95;10.90;;;17.10;95.70;;;;;;6127777;23;20028;-91
2023/05/09 11:13:32;;;;;;;15.98;9.55;;;17.10;95.60;;;;;;6127246;23;20017;-93
2023/05/09 11:15:58;;;;;;;24.00;10.98;;;17.10;95.50;;;;;;6127938;23;20006;-96
2023/05/09 11:18:23;;;;;;;17.58;10.13;;;17.10;95.70;;;;;;6128624;23;20085;-94
2023/05/09 11:20:50;;;;;;;22.58;11.30;;;17.10;95.70;;;;;;6126624;23;20016;-94
2023/05/09 11:23:20;;;;;;;17.10;10.07;;;17.10;95.70;;;;;;6124836;23;20009;-93
2023/05/09 11:25:47;;;;;;;21.50;10.77;;;17.00;95.70;;;;;;6125127;23;20017;-93
2023/05/09 11:28:36;;;;;;;15.73;9.63;;;17.10;95.70;;;;;;6127902;23;20006;-96
2023/05/09 11:31:16;;;;;;;20.65;11.20;;;17.10;96.00;;;;;;6126594;23;20033;-92
2023/05/09 11:33:46;;;;;;;17.75;8.63;;;17.10;95.80;;;;;;6127528;23;20032;-93
2023/05/09 11:36:26;;;;;;;;;;;17.00;96.30;;;;;;6128474;23;20006;-93
2023/05/09 11:39:05;;;;;;;14.45;9.32;;;17.10;96.00;;;;;;6128065;23;19900;-94
2023/05/09 11:41:38;;;;;;;19.70;10.88;;;17.00;96.10;;;;;;6130214;23;20065;-93
2023/05/09 11:44:13;;;;;;;26.00;10.40;;;17.10;95.90;;;;;;6129924;23;20431;-91
2023/05/09 11:46:39;;;;;;;15.18;9.50;;;17.00;95.90;;;;;;6130852;23;20016;-93
2023/05/09 11:49:06;;;;;;;19.20;8.77;;;17.10;96.90;;;;;;6132066;23;20001;-93
2023/05/09 11:51:38;;;;;;;21.95;10.80;;;17.10;96.50;;;;;;6131763;23;20005;-90
2023/05/09 11:54:06;;;;;;;18.23;10.73;;;17.10;96.30;;;;;;6131609;23;20093;-93
2023/05/09 11:56:33;;;;;;;19.50;10.45;;;17.00;96.10;;;;;;6132234;23;20085;-94
2023/05/09 11:58:58;;;;;;;15.75;9.55;;;17.00;96.20;;;;;;6131574;23;20009;-92
2023/05/09 12:01:24;;;;;;;19.00;9.57;;;17.00;96.20;;;;;;6130041;23;20041;-93
2023/05/09 12:03:50;;;;;;;19.75;9.85;;;17.00;96.00;;;;;;6130892;23;20100;-94
2023/05/09 12:06:17;;;;;;;16.38;9.10;;;17.00;96.00;;;;;;6131146;23;20016;-94
2023/05/09 12:08:46;;;;;;;12.13;7.45;;;17.10;95.90;;;;;;6131674;23;20005;-94
2023/05/09 12:11:13;;;;;;;14.67;7.83;;;17.00;96.00;;;;;;6132101;23;20034;-94
2023/05/09 12:13:51;;;;;;;13.52;7.35;;;17.10;96.30;;;;;;6132456;23;20033;-95
2023/05/09 12:16:18;;;;;;;13.48;7.30;;;17.10;96.50;;;;;;6134747;23;20106;-95
2023/05/09 12:18:44;;;;;;;13.27;6.63;;;17.20;96.50;;;;;;6158952;23;20442;-95
2023/05/09 12:21:11;;;;;;;17.30;8.35;;;17.10;96.30;;;;;;6130345;23;20009;-94
2023/05/09 12:23:36;;;;;;;15.10;8.13;;;17.10;96.00;;;;;;6131377;23;20006;-93
2023/05/09 12:26:02;;;;;;;15.80;7.43;;;17.10;96.30;;;;;;6130929;23;20001;-93
2023/05/09 12:33:44;;;;;;;12.43;6.60;;;17.30;96.70;;;;;;6137131;23;20077;-96
2023/05/09 12:36:15;;;;;;;11.52;7.20;;;17.50;96.40;;;;;;6138959;23;20477;-94
2023/05/09 12:38:51;;;;;;;11.68;6.88;;;17.30;96.50;;;;;;6138271;23;20071;-93
2023/05/09 12:41:17;;;;;;;8.70;5.00;;;17.30;97.00;;;;;;6132755;23;20063;-96
2023/05/09 12:43:47;;;;;;;8.48;4.55;;;17.30;97.20;;;;;;6130591;23;20007;-94
2023/05/09 12:46:17;;;;;;;9.73;5.57;;;17.30;96.40;;;;;;6129890;23;20019;-95
2023/05/09 12:48:43;;;;;;;8.32;4.80;;;17.30;96.10;;;;;;6156922;23;20068;-94
2023/05/09 12:51:09;;;;;;;9.68;6.35;;;17.30;96.30;;;;;;6129652;23;20005;-95
2023/05/09 12:53:40;;;;;;;6.03;3.85;;;17.20;96.00;;;;;;6129623;23;20067;-96
2023/05/09 12:56:17;;;;;;;6.65;4.50;;;17.20;96.00;;;;;;6130584;23;20002;-95
2023/05/09 12:58:50;;;;;;;10.75;5.90;;;17.20;95.70;;;;;;6131835;23;20012;-95
2023/05/09 13:01:17;;;;;;;7.78;4.78;;;17.30;95.40;;;;;;6135326;23;20009;-92
2023/05/09 13:03:43;;;;;;;8.30;3.75;;;17.30;95.50;;;;;;6128722;23;20013;-94
2023/05/09 13:06:13;;;;;;;9.50;5.95;;;17.20;95.90;;;;;;6129697;23;20013;-93
2023/05/09 13:08:39;;;;;;;8.18;5.70;;;17.20;95.70;;;;;;6129561;23;20014;-91
2023/05/09 13:11:08;;;;;;;13.00;6.82;;;17.20;95.80;;;;;;6129980;23;20039;-93
2023/05/09 13:13:34;;;;;;;9.20;5.07;;;17.20;95.70;;;;;;6131890;23;20033;-92
2023/05/09 13:16:00;;;;;;;8.15;5.68;;;17.20;95.70;;;;;;6128993;23;20040;-91
2023/05/09 13:18:25;;;;;;;9.95;6.05;;;17.40;95.40;;;;;;6129414;23;20016;-93
2023/05/09 13:20:51;;;;;;;10.68;5.63;;;17.20;95.10;;;;;;6127941;23;20005;-92
2023/05/09 13:23:17;;;;;;;10.32;5.47;;;17.20;95.40;;;;;;6152564;23;20009;-93
2023/05/09 13:25:42;;;;;;;7.30;4.63;;;17.20;95.40;;;;;;6127997;23;20092;-94
2023/05/09 13:28:08;;;;;;;8.93;5.82;;;17.20;95.40;;;;;;6153728;23;20431;-94
2023/05/09 13:30:34;;;;;;;10.45;6.18;;;17.20;95.10;;;;;;6126718;23;20012;-93
2023/05/09 13:33:00;;;;;;;11.88;6.55;;;17.20;95.20;;;;;;6127241;23;20148;-94
2023/05/09 13:35:26;;;;;;;8.85;5.28;;;17.20;95.20;;;;;;6127382;23;20037;-92
2023/05/09 13:37:52;;;;;;;6.82;4.20;;;17.20;95.60;;;;;;6127999;23;20362;-93
2023/05/09 13:40:17;;;;;;;7.03;4.10;;;17.20;96.00;;;;;;6127374;23;20009;-94
2023/05/09 13:42:43;;;;;;;9.43;3.25;;;17.60;95.60;;;;;;6127440;23;20065;-94
2023/05/09 13:45:10;;;;;;;6.55;4.53;;;17.30;95.70;;;;;;6127024;23;20009;-95
2023/05/09 13:47:36;;;;;;;6.50;3.85;;;17.30;95.30;;;;;;6127137;23;20005;-93
2023/05/09 13:50:02;;;;;;;17.05;5.28;;;17.30;95.40;;;;;;6126988;23;20087;-94
2023/05/09 13:52:27;;;;;;;7.00;4.50;;;17.30;95.60;;;;;;6127504;23;20024;-93
2023/05/09 13:54:53;;;;;;;4.95;3.47;;;17.30;95.60;;;;;;6128382;23;20068;-95
2023/05/09 13:57:19;;;;;;;7.25;3.88;;;17.30;95.30;;;;;;6127407;23;20013;-94
2023/05/09 13:59:44;;;;;;;10.00;4.20;;;17.30;95.30;;;;;;6126798;23;20005;-92
2023/05/09 14:02:10;;;;;;;5.13;3.58;;;17.30;95.30;;;;;;6154768;23;20126;-94
2023/05/09 14:04:36;;;;;;;11.02;3.75;;;17.30;95.00;;;;;;6130546;23;20013;-90
2023/05/09 14:07:02;;;;;;;6.40;4.03;;;17.30;95.20;;;;;;6129239;23;20010;-94
2023/05/09 14:09:28;;;;;;;6.25;3.65;;;17.20;95.00;;;;;;6130223;23;20016;-94
2023/05/09 14:11:55;;;;;;;6.38;3.97;;;17.30;95.10;;;;;;6129023;23;20016;-92
2023/05/09 14:14:23;;;;;;;8.95;3.45;;;17.30;94.90;;;;;;6128920;23;20434;-94
2023/05/09 14:16:49;;;;;;;4.55;3.78;;;17.20;94.90;;;;;;6129701;23;20094;-96
2023/05/09 14:19:15;;;;;;;7.72;3.08;;;17.20;94.70;;;;;;6130350;23;20013;-94
2023/05/09 14:21:42;;;;;;;7.20;4.18;;;17.20;94.80;;;;;;6155246;23;20005;-91